createdAt,value
2023-02-11T00:00:57.959Z,61.50
2023-02-11T00:01:57.973Z,51.30
2023-02-11T00:02:57.922Z,47.70
2023-02-11T00:03:57.893Z,46.90
2023-02-11T00:04:57.942Z,45.30
2023-02-11T00:05:57.893Z,47.20
2023-02-11T00:06:57.858Z,46.30
2023-02-11T00:07:57.853Z,45.00
2023-02-11T00:08:57.851Z,46.70
2023-02-11T00:09:57.837Z,47.90
2023-02-11T00:10:57.861Z,50.40
2023-02-11T00:11:57.814Z,46.90
2023-02-11T00:12:57.790Z,45.60
2023-02-11T00:13:57.778Z,46.00
2023-02-11T00:14:57.784Z,46.60
2023-02-11T00:15:57.821Z,48.00
2023-02-11T00:16:57.869Z,46.50
2023-02-11T00:17:57.800Z,45.30
2023-02-11T00:18:57.757Z,47.10
2023-02-11T00:19:57.728Z,45.30
2023-02-11T00:20:57.772Z,46.00
2023-02-11T00:21:57.708Z,47.20
2023-02-11T00:22:57.709Z,48.70
2023-02-11T00:23:57.733Z,45.50
2023-02-11T00:24:57.672Z,44.80
2023-02-11T00:25:57.668Z,46.70
2023-02-11T00:26:57.688Z,46.60
2023-02-11T00:27:57.865Z,45.00
2023-02-11T00:28:57.632Z,45.20
2023-02-11T00:29:57.653Z,45.40
2023-02-11T00:30:57.727Z,45.80
2023-02-11T00:31:57.726Z,47.70
2023-02-11T00:32:58.628Z,47.30
2023-02-11T00:33:57.600Z,45.40
2023-02-11T00:34:57.621Z,47.70
2023-02-11T00:35:57.600Z,47.00
2023-02-11T00:36:57.598Z,48.50
2023-02-11T00:37:57.582Z,46.30
2023-02-11T00:38:57.599Z,47.80
2023-02-11T00:39:57.551Z,47.10
2023-02-11T00:40:57.561Z,48.00
2023-02-11T00:41:57.559Z,47.30
2023-02-11T00:42:57.524Z,49.50
2023-02-11T00:43:57.576Z,52.30
2023-02-11T00:44:57.523Z,49.70
2023-02-11T00:45:57.522Z,48.40
2023-02-11T00:46:57.489Z,49.80
2023-02-11T00:47:57.539Z,50.10
2023-02-11T00:48:57.511Z,51.40
2023-02-11T00:49:57.468Z,52.10
2023-02-11T00:50:57.498Z,48.30
2023-02-11T00:51:57.464Z,51.00
2023-02-11T00:52:57.459Z,53.60
2023-02-11T00:53:57.436Z,51.00
2023-02-11T00:54:57.391Z,51.70
2023-02-11T00:55:57.401Z,47.50
2023-02-11T00:56:57.395Z,51.10
2023-02-11T00:57:58.468Z,53.20
2023-02-11T00:58:57.360Z,48.40
2023-02-11T00:59:57.334Z,49.50
2023-02-11T01:00:57.377Z,52.10
2023-02-11T01:01:57.345Z,51.00
2023-02-11T01:02:57.326Z,52.70
2023-02-11T01:03:58.346Z,49.60
2023-02-11T01:04:57.343Z,51.10
2023-02-11T01:05:57.285Z,51.80
2023-02-11T01:06:57.323Z,49.00
2023-02-11T01:07:57.242Z,51.40
2023-02-11T01:08:57.316Z,53.80
2023-02-11T01:09:57.258Z,52.10
2023-02-11T01:10:57.236Z,52.70
2023-02-11T01:11:57.247Z,56.00
2023-02-11T01:12:57.228Z,53.50
2023-02-11T01:13:57.283Z,52.10
2023-02-11T01:14:57.223Z,53.50
2023-02-11T01:15:57.377Z,54.30
2023-02-11T01:16:57.217Z,52.00
2023-02-11T01:17:57.171Z,53.50
2023-02-11T01:18:57.204Z,53.00
2023-02-11T01:19:57.123Z,51.30
2023-02-11T01:20:57.236Z,52.20
2023-02-11T01:21:57.162Z,54.30
2023-02-11T01:22:57.212Z,57.10
2023-02-11T01:23:57.096Z,54.00
2023-02-11T01:24:57.129Z,54.30
2023-02-11T01:25:57.115Z,53.20
2023-02-11T01:26:57.121Z,52.10
2023-02-11T01:27:57.920Z,51.60
2023-02-11T01:28:57.061Z,52.50
2023-02-11T01:29:57.062Z,54.70
2023-02-11T01:30:57.107Z,55.20
2023-02-11T01:31:57.115Z,53.60
2023-02-11T01:32:57.068Z,51.30
2023-02-11T01:33:57.031Z,53.50
2023-02-11T01:34:57.042Z,52.70
2023-02-11T01:35:57.011Z,53.30
2023-02-11T01:36:57.100Z,54.40
2023-02-11T01:37:56.990Z,53.70
2023-02-11T01:38:57.061Z,53.00
2023-02-11T01:39:57.006Z,52.10
2023-02-11T01:40:56.995Z,52.10
2023-02-11T01:41:56.978Z,54.90
2023-02-11T01:42:56.922Z,53.00
2023-02-11T01:43:56.944Z,53.70
2023-02-11T01:44:56.951Z,51.50
2023-02-11T01:45:57.133Z,54.00
2023-02-11T01:46:56.955Z,57.20
2023-02-11T01:47:56.886Z,54.00
2023-02-11T01:48:56.950Z,57.20
2023-02-11T01:49:57.897Z,54.30
2023-02-11T01:50:56.964Z,55.60
2023-02-11T01:51:56.900Z,54.90
2023-02-11T01:52:56.896Z,52.40
2023-02-11T01:53:56.854Z,52.20
2023-02-11T01:57:06.569Z,54.50
2023-02-11T01:58:06.518Z,54.90
2023-02-11T01:59:06.516Z,55.40
2023-02-11T02:00:06.632Z,49.50
2023-02-11T02:01:06.425Z,52.40
2023-02-11T02:02:07.743Z,57.00
2023-02-11T02:03:08.046Z,55.20
2023-02-11T02:04:07.594Z,53.70
2023-02-11T02:05:07.643Z,53.40
2023-02-11T02:06:07.665Z,53.60
2023-02-11T02:07:07.631Z,56.00
2023-02-11T02:08:07.569Z,53.80
2023-02-11T02:09:07.535Z,55.00
2023-02-11T02:10:07.645Z,54.70
2023-02-11T02:11:07.591Z,55.50
2023-02-11T02:12:07.541Z,56.20
2023-02-11T02:13:07.507Z,51.70
2023-02-11T02:14:07.478Z,54.50
2023-02-11T02:15:07.525Z,53.60
2023-02-11T02:16:09.809Z,54.60
2023-02-11T02:17:08.734Z,55.40
2023-02-11T02:18:08.183Z,57.80
2023-02-11T02:19:07.392Z,55.80
2023-02-11T02:20:08.296Z,54.70
2023-02-11T02:21:07.485Z,58.20
2023-02-11T02:22:07.450Z,54.60
2023-02-11T02:23:07.379Z,55.30
2023-02-11T02:24:07.399Z,57.40
2023-02-11T02:25:07.392Z,54.70
2023-02-11T02:26:07.311Z,54.50
2023-02-11T02:27:07.391Z,55.50
2023-02-11T02:28:07.348Z,51.30
2023-02-11T02:29:07.362Z,55.50
2023-02-11T02:30:07.341Z,54.10
2023-02-11T02:31:07.447Z,54.80
2023-02-11T02:32:07.320Z,52.20
2023-02-11T02:33:21.645Z,55.20
2023-02-11T02:34:09.280Z,51.50
2023-02-11T02:35:07.230Z,57.50
2023-02-11T02:36:07.275Z,55.00
2023-02-11T02:37:07.280Z,53.70
2023-02-11T02:38:07.180Z,53.60
2023-02-11T02:39:07.218Z,55.20
2023-02-11T02:40:07.235Z,54.40
2023-02-11T02:41:07.190Z,51.90
2023-02-11T02:42:07.196Z,57.20
2023-02-11T02:43:07.224Z,51.60
2023-02-11T02:44:07.187Z,53.60
2023-02-11T02:45:07.230Z,50.20
2023-02-11T02:46:07.145Z,52.70
2023-02-11T02:47:07.129Z,51.80
2023-02-11T02:48:07.173Z,52.10
2023-02-11T02:49:07.112Z,53.20
2023-02-11T02:50:07.139Z,54.90
2023-02-11T02:51:07.086Z,55.10
2023-02-11T02:52:07.244Z,56.10
2023-02-11T02:53:07.149Z,50.40
2023-02-11T02:54:07.046Z,52.90
2023-02-11T02:55:07.088Z,51.00
2023-02-11T02:56:07.143Z,52.80
2023-02-11T02:57:07.135Z,53.10
2023-02-11T02:58:07.067Z,51.70
2023-02-11T02:59:07.030Z,51.90
2023-02-11T03:00:07.056Z,50.50
2023-02-11T03:01:07.233Z,53.50
2023-02-11T03:02:07.017Z,50.90
2023-02-11T03:03:07.086Z,53.80
2023-02-11T03:04:07.120Z,49.60
2023-02-11T03:05:06.983Z,52.20
2023-02-11T03:06:07.024Z,52.80
2023-02-11T03:07:06.974Z,49.80
2023-02-11T03:08:07.000Z,53.30
2023-02-11T03:09:09.010Z,49.00
2023-02-11T03:10:06.920Z,51.10
2023-02-11T03:11:07.018Z,48.90
2023-02-11T03:12:06.904Z,50.80
2023-02-11T03:13:06.887Z,50.90
2023-02-11T03:14:06.962Z,50.10
2023-02-11T03:15:07.078Z,49.90
2023-02-11T03:16:06.943Z,48.90
2023-02-11T03:17:06.909Z,51.90
2023-02-11T03:18:06.876Z,49.70
2023-02-11T03:46:53.785Z,52.00
2023-02-11T03:47:55.032Z,49.30
2023-02-11T03:48:54.981Z,49.50
2023-02-11T03:49:54.960Z,50.10
2023-02-11T03:50:54.966Z,51.00
2023-02-11T03:51:54.929Z,48.10
2023-02-11T03:52:55.989Z,52.10
2023-02-11T03:53:54.990Z,51.20
2023-02-11T03:54:54.920Z,49.70
2023-02-11T03:55:56.659Z,48.40
2023-02-11T03:56:54.892Z,48.10
2023-02-11T03:57:54.903Z,49.30
2023-02-11T03:58:54.979Z,52.60
2023-02-11T03:59:54.878Z,48.60
2023-02-11T04:00:54.856Z,46.90
2023-02-11T04:01:54.845Z,45.60
2023-02-11T04:02:55.024Z,49.40
2023-02-11T04:03:55.000Z,47.90
2023-02-11T04:04:54.930Z,46.80
2023-02-11T04:05:54.797Z,48.60
2023-02-11T04:06:54.771Z,49.20
2023-02-11T04:07:54.835Z,48.90
2023-02-11T04:08:54.898Z,49.20
2023-02-11T04:09:54.812Z,48.30
2023-02-11T04:10:54.847Z,48.70
2023-02-11T04:11:54.821Z,49.20
2023-02-11T04:12:54.768Z,49.10
2023-02-11T04:13:54.822Z,47.00
2023-02-11T04:14:54.732Z,49.00
2023-02-11T04:15:55.002Z,47.30
2023-02-11T04:16:55.526Z,48.70
2023-02-11T04:17:54.708Z,46.40
2023-02-11T04:18:54.777Z,48.00
2023-02-11T04:19:54.724Z,50.00
2023-02-11T04:20:54.729Z,46.80
2023-02-11T04:21:54.634Z,48.30
2023-02-11T04:22:54.633Z,45.40
2023-02-11T04:23:54.667Z,48.10
2023-02-11T04:24:54.579Z,48.20
2023-02-11T04:25:54.574Z,48.20
2023-02-11T04:26:54.651Z,46.50
2023-02-11T04:27:54.751Z,47.60
2023-02-11T04:28:54.617Z,47.30
2023-02-11T04:29:54.558Z,49.00
2023-02-11T04:30:54.655Z,47.80
2023-02-11T04:31:54.662Z,49.60
2023-02-11T04:32:54.557Z,47.10
2023-02-11T04:33:54.574Z,47.30
2023-02-11T04:34:54.504Z,47.60
2023-02-11T04:35:54.544Z,50.10
2023-02-11T04:36:54.523Z,47.80
2023-02-11T04:37:54.510Z,47.40
2023-02-11T04:38:54.594Z,47.70
2023-02-11T04:39:54.492Z,46.70
2023-02-11T04:40:54.447Z,46.60
2023-02-11T04:41:54.516Z,48.80
2023-02-11T04:42:54.454Z,45.70
2023-02-11T04:43:54.389Z,45.90
2023-02-11T04:44:54.479Z,48.10
2023-02-11T04:45:54.400Z,45.90
2023-02-11T04:46:54.382Z,49.30
2023-02-11T04:47:54.476Z,50.40
2023-02-11T04:48:54.513Z,46.40
2023-02-11T04:49:54.350Z,47.30
2023-02-11T04:50:54.503Z,44.30
2023-02-11T04:51:54.347Z,46.50
2023-02-11T04:52:54.407Z,49.00
2023-02-11T04:53:54.528Z,46.70
2023-02-11T04:54:54.333Z,47.50
2023-02-11T04:55:54.413Z,46.90
2023-02-11T04:56:54.275Z,47.90
2023-02-11T04:57:54.500Z,47.10
2023-02-11T04:58:54.235Z,46.40
2023-02-11T04:59:54.254Z,48.20
2023-02-11T05:00:54.326Z,46.90
2023-02-11T05:01:54.273Z,46.20
2023-02-11T05:02:54.411Z,49.30
2023-02-11T05:03:54.336Z,47.00
2023-02-11T05:04:54.241Z,45.80
2023-02-11T05:05:54.183Z,47.50
2023-02-11T05:06:55.271Z,48.30
2023-02-11T05:07:54.212Z,46.60
2023-02-11T05:08:54.191Z,49.10
2023-02-11T05:09:54.164Z,50.40
2023-02-11T05:10:54.126Z,45.20
2023-02-11T05:11:54.301Z,47.30
2023-02-11T05:12:55.889Z,47.90
2023-02-11T05:13:55.171Z,46.70
2023-02-11T05:14:54.140Z,49.20
2023-02-11T05:15:54.126Z,46.90
2023-02-11T05:16:54.304Z,48.00
2023-02-11T05:17:54.041Z,46.90
2023-02-11T05:18:54.076Z,49.10
2023-02-11T05:19:54.047Z,46.30
2023-02-11T05:20:54.045Z,48.10
2023-02-11T05:22:02.653Z,48.50
2023-02-11T05:22:54.060Z,47.00
2023-02-11T05:23:54.060Z,47.00
2023-02-11T05:24:53.988Z,46.30
2023-02-11T05:25:54.016Z,45.60
2023-02-11T05:26:54.007Z,47.10
2023-02-11T05:27:54.071Z,44.90
2023-02-11T05:28:54.061Z,47.10
2023-02-11T05:29:53.910Z,46.00
2023-02-11T05:30:55.068Z,45.10
2023-02-11T05:31:53.982Z,47.20
2023-02-11T05:32:53.951Z,47.90
2023-02-11T05:33:53.912Z,46.10
2023-02-11T05:34:54.062Z,45.60
2023-02-11T05:35:54.051Z,47.70
2023-02-11T05:36:53.901Z,46.50
2023-02-11T05:37:54.018Z,45.20
2023-02-11T05:38:53.818Z,48.80
2023-02-11T05:39:53.890Z,45.30
2023-02-11T05:40:53.880Z,47.50
2023-02-11T05:41:53.923Z,46.10
2023-02-11T05:42:53.869Z,45.70
2023-02-11T05:43:53.917Z,44.80
2023-02-11T05:44:53.989Z,47.00
2023-02-11T05:45:54.090Z,46.50
2023-02-11T05:46:53.853Z,45.80
2023-02-11T05:47:53.780Z,43.10
2023-02-11T05:48:53.767Z,45.90
2023-02-11T05:49:53.844Z,44.40
2023-02-11T05:50:53.799Z,44.00
2023-02-11T05:51:53.819Z,46.20
2023-02-11T05:52:53.715Z,48.20
2023-02-11T05:53:54.735Z,46.50
2023-02-11T05:54:53.670Z,45.80
2023-02-11T05:55:53.898Z,45.80
2023-02-11T05:56:53.696Z,46.40
2023-02-11T05:57:53.721Z,43.40
2023-02-11T05:58:53.646Z,48.10
2023-02-11T05:59:53.730Z,45.40
2023-02-11T06:00:53.676Z,47.50
2023-02-11T06:01:53.565Z,43.40
2023-02-11T06:02:53.768Z,45.70
2023-02-11T06:03:53.874Z,46.20
2023-02-11T06:04:53.584Z,44.60
2023-02-11T06:05:53.613Z,45.60
2023-02-11T06:06:54.594Z,46.80
2023-02-11T06:07:53.747Z,44.40
2023-02-11T06:08:53.554Z,46.10
2023-02-11T06:09:53.619Z,44.40
2023-02-11T06:10:53.568Z,43.10
2023-02-11T06:11:53.553Z,45.00
2023-02-11T06:12:53.526Z,47.60
2023-02-11T06:13:53.637Z,44.20
2023-02-11T06:14:53.664Z,45.40
2023-02-11T06:15:53.702Z,44.80
2023-02-11T06:16:53.517Z,46.60
2023-02-11T06:17:53.511Z,47.00
2023-02-11T06:18:53.637Z,44.10
2023-02-11T06:37:24.929Z,44.00
2023-02-11T06:38:26.171Z,48.70
2023-02-11T06:39:26.112Z,49.90
2023-02-11T06:40:26.082Z,48.60
2023-02-11T06:41:26.150Z,49.20
2023-02-11T06:42:26.160Z,46.30
2023-02-11T06:43:26.095Z,46.20
2023-02-11T06:44:26.090Z,46.60
2023-02-11T06:45:26.063Z,47.10
2023-02-11T06:46:26.055Z,47.10
2023-02-11T06:47:25.995Z,46.60
2023-02-11T06:48:26.019Z,47.60
2023-02-11T06:49:26.039Z,46.60
2023-02-11T06:50:25.993Z,45.00
2023-02-11T06:51:26.025Z,48.80
2023-02-11T06:52:25.999Z,46.60
2023-02-11T06:53:26.082Z,49.00
2023-02-11T06:54:25.999Z,46.00
2023-02-11T06:55:25.996Z,47.20
2023-02-11T06:56:26.129Z,45.10
2023-02-11T06:57:26.002Z,46.50
2023-02-11T06:58:25.969Z,47.30
2023-02-11T06:59:25.922Z,48.60
2023-02-11T07:00:26.099Z,46.60
2023-02-11T07:01:25.954Z,47.50
2023-02-11T07:02:25.960Z,44.90
2023-02-11T07:03:26.041Z,46.10
2023-02-11T07:04:25.956Z,49.00
2023-02-11T07:05:25.929Z,46.90
2023-02-11T07:06:26.041Z,45.80
2023-02-11T07:07:25.998Z,46.70
2023-02-11T07:08:26.080Z,42.70
2023-02-11T07:09:25.810Z,45.40
2023-02-11T07:10:25.896Z,42.30
2023-02-11T07:11:25.888Z,46.40
2023-02-11T07:12:25.813Z,49.20
2023-02-11T07:13:25.794Z,47.20
2023-02-11T07:14:25.942Z,47.20
2023-02-11T07:15:25.782Z,48.20
2023-02-11T07:16:25.805Z,46.40
2023-02-11T07:17:25.746Z,46.20
2023-02-11T07:18:25.757Z,45.80
2023-02-11T07:19:25.715Z,45.30
2023-02-11T07:20:25.724Z,47.00
2023-02-11T07:21:26.079Z,44.90
2023-02-11T07:22:25.747Z,46.00
2023-02-11T07:23:26.796Z,48.10
2023-02-11T07:24:25.764Z,46.40
2023-02-11T07:25:25.669Z,47.70
2023-02-11T07:26:26.647Z,44.90
2023-02-11T07:27:25.723Z,44.30
2023-02-11T07:28:25.766Z,46.30
2023-02-11T07:29:25.599Z,45.20
2023-02-11T07:30:25.605Z,46.40
2023-02-11T07:31:25.751Z,46.30
2023-02-11T07:32:26.584Z,44.70
2023-02-11T07:33:25.620Z,46.70
2023-02-11T07:34:25.676Z,45.40
2023-02-11T07:35:25.610Z,46.50
2023-02-11T07:36:25.728Z,45.80
2023-02-11T07:37:25.760Z,46.30
2023-02-11T07:38:25.783Z,45.00
2023-02-11T07:39:25.843Z,45.50
2023-02-11T07:40:25.601Z,46.30
2023-02-11T07:41:26.268Z,44.10
2023-02-11T07:42:33.177Z,45.60
2023-02-11T07:43:26.679Z,46.90
2023-02-11T07:44:27.001Z,44.80
2023-02-11T07:45:27.674Z,46.30
2023-02-11T07:46:26.243Z,45.80
2023-02-11T07:47:25.942Z,43.70
2023-02-11T07:48:30.122Z,44.90
2023-02-11T07:49:29.697Z,45.00
2023-02-11T07:50:25.623Z,42.20
2023-02-11T07:51:25.627Z,44.30
2023-02-11T07:52:27.384Z,45.40
2023-02-11T07:53:26.598Z,44.90
2023-02-11T07:54:26.588Z,44.60
2023-02-11T07:55:37.802Z,43.40
2023-02-11T07:56:32.159Z,44.40
2023-02-11T07:57:30.839Z,46.20
2023-02-11T07:58:27.468Z,45.40
2023-02-11T07:59:25.747Z,42.30
2023-02-11T08:00:33.475Z,43.40
2023-02-11T08:01:26.868Z,46.80
2023-02-11T08:02:26.782Z,44.10
2023-02-11T08:03:25.450Z,44.20
2023-02-11T08:04:25.535Z,44.50
2023-02-11T08:05:26.222Z,45.20
2023-02-11T08:06:25.533Z,43.80
2023-02-11T08:07:25.539Z,42.30
2023-02-11T08:08:27.015Z,42.50
2023-02-11T08:09:27.664Z,45.80
2023-02-11T08:10:26.539Z,44.90
2023-02-11T08:11:26.401Z,45.20
2023-02-11T08:12:26.134Z,42.30
2023-02-11T08:13:25.301Z,43.00
2023-02-11T08:14:25.493Z,42.10
2023-02-11T08:15:27.677Z,42.40
2023-02-11T08:16:25.536Z,42.60
2023-02-11T08:17:25.628Z,43.10
2023-02-11T08:18:25.257Z,44.40
2023-02-11T08:19:25.208Z,43.30
2023-02-11T08:20:25.595Z,44.30
2023-02-11T08:21:25.389Z,41.50
2023-02-11T08:22:25.164Z,43.80
2023-02-11T08:23:25.328Z,45.20
2023-02-11T08:24:25.180Z,43.10
2023-02-11T08:25:25.086Z,41.40
2023-02-11T08:26:25.470Z,42.60
2023-02-11T08:27:25.490Z,42.80
2023-02-11T08:28:26.750Z,42.80
2023-02-11T08:29:25.161Z,43.00
2023-02-11T08:30:27.407Z,40.50
2023-02-11T08:31:26.172Z,43.00
2023-02-11T08:32:25.099Z,43.50
2023-02-11T08:33:25.669Z,47.60
2023-02-11T08:34:25.014Z,44.70
2023-02-11T08:35:25.010Z,42.20
2023-02-11T08:36:25.289Z,42.20
2023-02-11T08:37:25.085Z,43.50
2023-02-11T08:38:24.985Z,42.40
2023-02-11T08:39:25.026Z,41.20
2023-02-11T08:40:25.041Z,42.70
2023-02-11T08:41:24.918Z,42.60
2023-02-11T08:42:24.888Z,42.60
2023-02-11T08:43:24.886Z,42.50
2023-02-11T08:44:25.922Z,43.90
2023-02-11T08:45:24.896Z,44.80
2023-02-11T08:46:24.865Z,42.80
2023-02-11T08:47:24.908Z,42.00
2023-02-11T08:48:24.850Z,42.00
2023-02-11T08:49:24.903Z,42.20
2023-02-11T08:50:24.818Z,41.60
2023-02-11T08:51:24.802Z,41.80
2023-02-11T08:52:24.830Z,41.80
2023-02-11T08:53:24.786Z,42.40
2023-02-11T08:54:24.953Z,43.40
2023-02-11T08:55:24.786Z,45.50
2023-02-11T08:56:24.799Z,42.00
2023-02-11T08:57:25.179Z,44.60
2023-02-11T08:58:24.801Z,41.20
2023-02-11T08:59:25.741Z,43.50
2023-02-11T09:00:24.745Z,43.00
2023-02-11T09:01:25.041Z,42.70
2023-02-11T09:02:25.151Z,45.90
2023-02-11T09:03:25.453Z,42.10
2023-02-11T09:04:24.682Z,42.40
2023-02-11T09:05:24.662Z,41.60
2023-02-11T09:06:24.913Z,42.30
2023-02-11T09:07:24.855Z,41.60
2023-02-11T09:08:24.934Z,39.60
2023-02-11T09:09:24.644Z,44.80
2023-02-11T09:10:33.626Z,43.10
2023-02-11T09:11:36.284Z,43.10
2023-02-11T09:12:35.701Z,42.00
2023-02-11T09:13:36.705Z,41.80
2023-02-11T09:14:25.593Z,42.70
2023-02-11T09:15:24.577Z,41.70
2023-02-11T09:16:24.672Z,42.10
2023-02-11T09:17:24.593Z,51.90
2023-02-11T09:18:24.564Z,56.30
2023-02-11T09:19:24.539Z,65.90
2023-02-11T09:20:24.482Z,61.20
2023-02-11T09:21:24.514Z,48.20
2023-02-11T09:22:24.540Z,46.30
2023-02-11T09:23:24.510Z,42.50
2023-02-11T09:24:24.516Z,41.70
2023-02-11T09:25:24.454Z,40.30
2023-02-11T09:26:24.523Z,44.90
2023-02-11T09:27:25.434Z,40.10
2023-02-11T09:28:24.472Z,42.90
2023-02-11T09:29:24.422Z,42.70
2023-02-11T09:30:24.350Z,42.70
2023-02-11T09:31:24.442Z,42.60
2023-02-11T09:32:24.821Z,42.30
2023-02-11T09:33:24.490Z,42.70
2023-02-11T09:34:24.482Z,44.30
2023-02-11T09:35:24.666Z,43.30
2023-02-11T09:36:24.315Z,43.20
2023-02-11T09:37:24.447Z,44.70
2023-02-11T09:38:24.340Z,44.00
2023-02-11T09:39:24.314Z,47.60
2023-02-11T09:40:24.301Z,43.60
2023-02-11T09:41:24.317Z,42.70
2023-02-11T09:42:24.317Z,42.80
2023-02-11T09:43:24.311Z,45.40
2023-02-11T09:44:24.381Z,40.90
2023-02-11T09:45:24.357Z,40.40
2023-02-11T09:46:24.381Z,40.90
2023-02-11T09:47:24.309Z,40.50
2023-02-11T09:48:25.333Z,41.20
2023-02-11T09:49:24.400Z,43.10
2023-02-11T09:50:24.804Z,41.70
2023-02-11T09:51:24.239Z,39.60
2023-02-11T09:52:24.311Z,38.40
2023-02-11T09:53:24.365Z,39.50
2023-02-11T09:54:24.247Z,39.40
2023-02-11T09:55:24.190Z,39.60
2023-02-11T09:56:24.274Z,37.90
2023-02-11T09:57:28.917Z,41.00
2023-02-11T09:58:25.137Z,38.00
2023-02-11T09:59:24.281Z,41.70
2023-02-11T10:00:24.158Z,38.70
2023-02-11T10:01:24.252Z,40.50
2023-02-11T10:02:24.174Z,39.50
2023-02-11T10:03:24.485Z,39.00
2023-02-11T10:04:24.250Z,39.30
2023-02-11T10:05:24.305Z,39.10
2023-02-11T10:06:37.688Z,39.00
2023-02-11T10:07:25.207Z,38.10
2023-02-11T10:08:56.434Z,40.80
2023-02-11T10:09:24.112Z,42.90
2023-02-11T10:10:24.082Z,43.50
2023-02-11T10:11:31.652Z,38.40
2023-02-11T10:12:26.050Z,41.70
2023-02-11T10:13:23.928Z,40.70
2023-02-11T10:14:24.032Z,39.40
2023-02-11T10:15:24.008Z,38.80
2023-02-11T10:16:23.919Z,38.90
2023-02-11T10:17:23.925Z,39.80
2023-02-11T10:18:23.888Z,38.50
2023-02-11T10:19:23.956Z,37.00
2023-02-11T10:20:23.885Z,38.60
2023-02-11T10:21:23.890Z,37.20
2023-02-11T10:22:23.863Z,39.20
2023-02-11T10:23:23.838Z,37.40
2023-02-11T10:24:23.934Z,40.10
2023-02-11T10:25:23.823Z,38.70
2023-02-11T10:26:23.880Z,39.30
2023-02-11T10:27:23.777Z,39.20
2023-02-11T10:28:23.882Z,37.10
2023-02-11T10:29:23.777Z,39.80
2023-02-11T10:30:23.787Z,41.90
2023-02-11T10:31:23.950Z,40.00
2023-02-11T10:32:23.765Z,37.10
2023-02-11T10:33:23.751Z,39.10
2023-02-11T10:34:23.762Z,40.60
2023-02-11T10:35:23.712Z,38.00
2023-02-11T10:36:23.733Z,41.90
2023-02-11T10:37:23.710Z,38.30
2023-02-11T10:38:23.723Z,39.40
2023-02-11T10:39:23.760Z,38.10
2023-02-11T10:40:23.720Z,40.60
2023-02-11T10:41:23.666Z,37.60
2023-02-11T10:42:24.109Z,38.00
2023-02-11T10:43:23.633Z,36.80
2023-02-11T10:44:23.644Z,38.10
2023-02-11T10:45:24.548Z,37.00
2023-02-11T10:46:23.651Z,38.20
2023-02-11T10:47:23.587Z,34.80
2023-02-11T10:48:23.621Z,36.80
2023-02-11T10:49:23.641Z,38.20
2023-02-11T10:50:23.646Z,34.70
2023-02-11T10:51:23.589Z,36.70
2023-02-11T10:52:23.614Z,38.60
2023-02-11T10:53:23.592Z,36.80
2023-02-11T10:54:23.684Z,38.50
2023-02-11T10:55:23.688Z,39.40
2023-02-11T10:56:23.538Z,40.00
2023-02-11T10:57:23.511Z,37.00
2023-02-11T10:58:23.502Z,37.20
2023-02-11T10:59:24.117Z,35.10
2023-02-11T11:00:23.492Z,38.60
2023-02-11T11:01:25.056Z,37.30
2023-02-11T11:02:23.537Z,34.30
2023-02-11T11:03:23.453Z,38.20
2023-02-11T11:04:23.506Z,35.50
2023-02-11T11:05:23.419Z,34.60
2023-02-11T11:06:23.439Z,39.40
2023-02-11T11:07:23.444Z,37.80
2023-02-11T11:08:23.515Z,36.80
2023-02-11T11:09:23.449Z,37.60
2023-02-11T11:10:23.449Z,38.20
2023-02-11T11:11:23.407Z,36.80
2023-02-11T11:12:23.386Z,34.90
2023-02-11T11:13:23.377Z,37.00
2023-02-11T11:14:23.314Z,35.50
2023-02-11T11:15:23.476Z,34.60
2023-02-11T11:16:23.475Z,31.10
2023-02-11T11:17:23.517Z,33.40
2023-02-11T11:18:23.701Z,34.70
2023-02-11T11:19:23.295Z,36.10
2023-02-11T11:20:23.286Z,33.00
2023-02-11T11:21:23.343Z,35.00
2023-02-11T11:22:23.278Z,33.20
2023-02-11T11:23:23.253Z,31.80
2023-02-11T11:24:25.505Z,34.10
2023-02-11T11:25:23.261Z,33.90
2023-02-11T11:26:23.285Z,32.50
2023-02-11T11:27:23.193Z,34.60
2023-02-11T11:28:23.275Z,34.60
2023-02-11T11:29:23.208Z,35.40
2023-02-11T11:30:23.239Z,34.30
2023-02-11T11:31:23.328Z,36.90
2023-02-11T11:32:23.136Z,34.20
2023-02-11T11:33:23.148Z,37.70
2023-02-11T11:34:23.141Z,36.60
2023-02-11T11:35:23.238Z,34.60
2023-02-11T11:36:24.075Z,39.00
2023-02-11T11:37:23.145Z,35.70
2023-02-11T11:38:23.108Z,36.30
2023-02-11T11:39:23.091Z,33.30
2023-02-11T11:40:23.203Z,33.70
2023-02-11T11:41:23.048Z,34.60
2023-02-11T11:42:23.073Z,34.20
2023-02-11T11:43:23.485Z,34.50
2023-02-11T11:44:24.035Z,33.00
2023-02-11T11:45:23.150Z,35.90
2023-02-11T11:46:23.052Z,37.30
2023-02-11T11:47:23.002Z,34.30
2023-02-11T11:48:23.000Z,33.90
2023-02-11T11:49:23.089Z,34.10
2023-02-11T11:50:23.011Z,33.30
2023-02-11T11:51:23.010Z,31.70
2023-02-11T11:52:23.668Z,32.30
2023-02-11T11:53:22.939Z,34.40
2023-02-11T11:54:22.930Z,34.60
2023-02-11T11:55:22.933Z,34.90
2023-02-11T11:56:22.909Z,36.00
2023-02-11T11:57:22.915Z,32.60
2023-02-11T11:58:22.892Z,35.00
2023-02-11T11:59:22.967Z,34.70
2023-02-11T12:00:22.970Z,33.60
2023-02-11T12:01:23.003Z,34.20
2023-02-11T12:02:22.884Z,34.20
2023-02-11T12:03:22.868Z,30.20
2023-02-11T12:04:22.850Z,33.20
2023-02-11T12:05:22.894Z,31.80
2023-02-11T12:06:22.837Z,33.10
2023-02-11T12:07:25.750Z,29.90
2023-02-11T12:08:23.783Z,32.20
2023-02-11T12:09:22.784Z,34.20
2023-02-11T12:10:22.799Z,32.00
2023-02-11T12:11:22.761Z,33.30
2023-02-11T12:12:22.746Z,32.60
2023-02-11T12:13:22.752Z,31.40
2023-02-11T12:14:22.736Z,30.70
2023-02-11T12:15:23.150Z,30.80
2023-02-11T12:16:22.768Z,31.60
2023-02-11T12:17:22.703Z,30.90
2023-02-11T12:18:22.672Z,34.00
2023-02-11T12:19:22.675Z,32.20
2023-02-11T12:20:22.704Z,30.70
2023-02-11T12:21:22.632Z,32.30
2023-02-11T12:22:23.557Z,30.90
2023-02-11T12:23:22.638Z,31.70
2023-02-11T12:24:22.624Z,31.30
2023-02-11T12:25:22.615Z,31.70
2023-02-11T12:26:23.860Z,29.20
2023-02-11T12:27:22.581Z,29.50
2023-02-11T12:28:22.609Z,30.40
2023-02-11T12:29:23.561Z,30.80
2023-02-11T12:30:22.568Z,29.70
2023-02-11T12:31:22.796Z,30.70
2023-02-11T12:32:22.511Z,31.40
2023-02-11T12:33:22.591Z,32.00
2023-02-11T12:34:22.623Z,31.90
2023-02-11T12:35:22.524Z,33.00
2023-02-11T12:36:22.515Z,31.50
2023-02-11T12:37:22.508Z,29.40
2023-02-11T12:38:23.052Z,30.40
2023-02-11T12:39:22.522Z,33.00
2023-02-11T12:40:22.678Z,31.50
2023-02-11T12:41:22.433Z,29.70
2023-02-11T12:42:22.431Z,29.40
2023-02-11T12:43:22.406Z,32.80
2023-02-11T12:44:22.421Z,32.00
2023-02-11T12:45:22.454Z,29.30
2023-02-11T12:46:23.132Z,26.20
2023-02-11T12:47:22.414Z,28.40
2023-02-11T12:48:22.979Z,27.00
2023-02-11T12:49:22.371Z,30.70
2023-02-11T12:50:22.579Z,29.70
2023-02-11T12:51:22.390Z,28.90
2023-02-11T12:52:22.359Z,28.40
2023-02-11T12:53:22.330Z,29.10
2023-02-11T12:54:22.331Z,31.30
2023-02-11T12:55:22.349Z,29.90
2023-02-11T12:56:22.404Z,26.20
2023-02-11T12:57:22.339Z,27.60
2023-02-11T12:58:27.323Z,29.30
2023-02-11T12:59:24.314Z,30.70
2023-02-11T13:00:22.318Z,29.20
2023-02-11T13:01:22.416Z,30.30
2023-02-11T13:02:23.291Z,31.50
2023-02-11T13:03:22.246Z,30.30
2023-02-11T13:04:22.521Z,29.40
2023-02-11T13:05:22.237Z,28.00
2023-02-11T13:06:22.217Z,27.40
2023-02-11T13:07:22.191Z,29.50
2023-02-11T13:08:22.258Z,28.60
2023-02-11T13:09:22.164Z,29.80
2023-02-11T13:10:22.226Z,29.60
2023-02-11T13:11:22.194Z,29.30
2023-02-11T13:12:22.124Z,28.30
2023-02-11T13:13:22.098Z,26.80
2023-02-11T13:14:22.159Z,30.40
2023-02-11T13:15:22.627Z,27.80
2023-02-11T13:16:22.088Z,27.00
2023-02-11T13:17:22.943Z,26.90
2023-02-11T13:18:22.059Z,28.10
2023-02-11T13:19:22.118Z,28.20
2023-02-11T13:20:22.076Z,28.20
2023-02-11T13:21:22.032Z,30.30
2023-02-11T13:22:22.061Z,26.90
2023-02-11T13:23:22.027Z,31.30
2023-02-11T13:24:22.105Z,27.40
2023-02-11T13:25:22.021Z,29.70
2023-02-11T13:26:21.998Z,26.40
2023-02-11T13:27:22.013Z,28.10
2023-02-11T13:28:22.069Z,27.00
2023-02-11T13:29:22.514Z,28.20
2023-02-11T13:30:21.987Z,27.60
2023-02-11T13:31:22.085Z,29.20
2023-02-11T13:32:21.941Z,28.00
2023-02-11T13:33:21.972Z,27.60
2023-02-11T13:34:21.937Z,28.50
2023-02-11T13:35:21.939Z,28.10
2023-02-11T13:36:22.568Z,27.90
2023-02-11T13:37:21.897Z,28.50
2023-02-11T13:38:21.892Z,26.40
2023-02-11T13:39:21.862Z,27.00
2023-02-11T13:40:21.948Z,27.80